Time;durP1;ratioP1;P1;durP2;ratioP2;P2;SDS_P1;SDS_P2;PMS_P1;PMS_P2;Temp;Humidity;BMP_temperature;BMP_pressure;BME280_temperature;BME280_humidity;BME280_pressure;Samples;Min_cycle;Max_cycle;Signal;HPM_P1;HPM_P2
2020/12/31 00:00:25;;;;;;;7.80;3.77;;;;;;;2.50;93.65;100370.59;5043570;28;20026;-78
2020/12/31 00:02:51;;;;;;;9.37;4.30;;;;;;;2.50;93.81;100365.53;5042696;28;20021;-78
2020/12/31 00:05:16;;;;;;;5.43;3.60;;;;;;;2.44;93.67;100365.25;5039135;28;20268;-78
2020/12/31 00:07:41;;;;;;;6.78;4.20;;;;;;;2.47;93.62;100362.00;5045476;28;20028;-78
2020/12/31 00:10:07;;;;;;;9.03;4.30;;;;;;;2.48;93.71;100362.06;5042731;28;20490;-78
2020/12/31 00:12:33;;;;;;;;;;;;;;;2.50;93.82;100354.53;5049472;28;20045;-78
2020/12/31 00:14:59;;;;;;;6.17;3.83;;;;;;;2.55;93.88;100352.22;5036535;28;19922;-78
2020/12/31 00:17:24;;;;;;;12.23;4.75;;;;;;;2.57;94.06;100354.03;5040573;28;20033;-78
2020/12/31 00:19:49;;;;;;;6.78;4.82;;;;;;;2.61;93.68;100352.53;5044853;28;20394;-77
2020/12/31 00:22:15;;;;;;;8.77;5.07;;;;;;;2.56;93.89;100348.88;5057860;28;20040;-78
2020/12/31 00:24:40;;;;;;;7.00;4.20;;;;;;;2.58;93.87;100348.16;5056913;28;20024;-78
2020/12/31 00:27:06;;;;;;;7.57;4.83;;;;;;;2.60;93.59;100341.50;5047013;28;20283;-78
2020/12/31 00:29:31;;;;;;;8.77;5.22;;;;;;;2.59;93.56;100338.88;5040362;28;20071;-77
2020/12/31 00:31:56;;;;;;;7.67;4.83;;;;;;;2.62;93.80;100342.47;5040103;28;20044;-78
2020/12/31 00:34:22;;;;;;;7.17;5.37;;;;;;;2.64;94.09;100329.84;5042067;28;20036;-78
2020/12/31 00:36:47;;;;;;;8.90;5.70;;;;;;;2.66;94.13;100333.31;5064416;28;20283;-78
2020/12/31 00:39:13;;;;;;;11.00;5.70;;;;;;;2.69;93.87;100325.84;5060681;28;20108;-78
2020/12/31 00:41:38;;;;;;;10.55;6.05;;;;;;;2.69;93.69;100321.66;5055559;28;20029;-78
2020/12/31 00:44:04;;;;;;;10.20;6.63;;;;;;;2.67;94.03;100318.19;5040406;28;20116;-78
2020/12/31 00:46:29;;;;;;;11.85;7.47;;;;;;;2.70;93.81;100314.91;5038764;28;20033;-77
2020/12/31 00:48:54;;;;;;;11.43;7.70;;;;;;;2.67;94.33;100319.84;5040275;28;20033;-78
2020/12/31 00:51:19;;;;;;;13.40;9.00;;;;;;;2.70;94.08;100313.25;5040741;28;20279;-78
2020/12/31 00:53:45;;;;;;;15.82;9.35;;;;;;;2.67;94.14;100320.72;5039567;28;20025;-78
2020/12/31 00:56:10;;;;;;;14.30;9.80;;;;;;;2.76;94.35;100318.59;5039318;28;20026;-77
2020/12/31 00:58:35;;;;;;;19.35;11.15;;;;;;;2.75;94.39;100321.06;5041591;28;20096;-77
2020/12/31 01:01:00;;;;;;;19.38;10.02;;;;;;;2.74;94.60;100316.78;5038843;28;20025;-78
2020/12/31 01:03:26;;;;;;;17.00;11.13;;;;;;;2.76;94.61;100320.25;5041380;28;20161;-78
2020/12/31 01:05:52;;;;;;;23.15;12.32;;;;;;;2.82;94.34;100323.06;5040228;28;20028;-78
2020/12/31 01:08:17;;;;;;;18.52;10.93;;;;;;;2.87;94.39;100323.28;5041083;28;20035;-78
2020/12/31 01:10:43;;;;;;;17.90;11.13;;;;;;;2.88;94.34;100320.81;5043074;28;20032;-78
2020/12/31 01:13:09;;;;;;;20.25;12.07;;;;;;;2.83;94.16;100317.19;5061398;28;20275;-78
2020/12/31 01:15:34;;;;;;;18.83;11.38;;;;;;;2.86;94.09;100324.94;5058825;28;20052;-78
2020/12/31 01:17:59;;;;;;;20.70;12.47;;;;;;;2.75;94.33;100318.53;5060710;28;20025;-77
2020/12/31 01:20:24;;;;;;;21.47;12.87;;;;;;;2.80;94.56;100325.53;5058922;28;20028;-78
2020/12/31 01:22:52;;;;;;;18.92;12.65;;;;;;;2.76;94.37;100317.72;5045378;28;20029;-79
2020/12/31 01:25:17;;;;;;;20.93;12.20;;;;;;;2.78;94.37;100322.06;5053525;28;20026;-80
2020/12/31 01:27:43;;;;;;;22.15;12.90;;;;;;;2.74;94.31;100319.31;5057984;28;20036;-80
2020/12/31 01:30:08;;;;;;;20.67;13.17;;;;;;;2.74;94.32;100321.84;5047856;28;20032;-78
2020/12/31 01:32:33;;;;;;;20.05;13.73;;;;;;;2.75;94.15;100319.41;5053976;28;20017;-81
2020/12/31 01:34:58;;;;;;;21.48;14.23;;;;;;;2.76;94.02;100318.59;5051431;28;20541;-79
2020/12/31 01:37:24;;;;;;;22.33;14.17;;;;;;;2.75;94.44;100319.41;5050247;28;20060;-79
2020/12/31 01:39:49;;;;;;;21.95;14.95;;;;;;;2.76;94.45;100325.34;5050660;28;20390;-79
2020/12/31 01:42:16;;;;;;;23.65;14.65;;;;;;;2.72;94.33;100319.25;5047842;28;20029;-79
2020/12/31 01:44:42;;;;;;;24.30;14.37;;;;;;;2.70;94.58;100322.53;5052133;28;20025;-79
2020/12/31 01:47:10;;;;;;;25.50;14.67;;;;;;;2.74;94.83;100322.72;5050706;28;20053;-78
2020/12/31 01:49:36;;;;;;;23.23;15.50;;;;;;;2.74;95.05;100321.84;5050322;28;20039;-79
2020/12/31 01:52:02;;;;;;;26.30;14.83;;;;;;;2.77;94.87;100324.53;5050627;28;20024;-82
2020/12/31 01:54:28;;;;;;;23.60;15.02;;;;;;;2.77;94.95;100319.47;5049784;28;20035;-79
2020/12/31 01:56:55;;;;;;;;;;;;;;;2.74;95.36;100322.72;5051870;28;20093;-78
2020/12/31 01:59:21;;;;;;;27.65;15.75;;;;;;;2.90;95.37;100325.94;5048165;28;19944;-82
2020/12/31 02:01:47;;;;;;;26.35;16.40;;;;;;;2.91;95.20;100328.56;5052898;28;20478;-79
2020/12/31 02:04:12;;;;;;;;;;;;;;;2.98;94.75;100325.53;5052414;28;20033;-80
2020/12/31 02:06:38;;;;;;;18.40;11.43;;;;;;;2.95;94.28;100325.41;5046882;28;19920;-81
2020/12/31 02:09:04;;;;;;;14.38;8.32;;;;;;;2.86;93.51;100326.63;5048318;28;20075;-79
2020/12/31 02:11:29;;;;;;;12.32;8.38;;;;;;;2.75;93.55;100324.47;5048800;28;20543;-79
2020/12/31 02:13:55;;;;;;;11.27;7.68;;;;;;;2.69;93.30;100330.94;5048457;28;20053;-79
2020/12/31 02:16:23;;;;;;;10.55;6.97;;;;;;;2.77;93.28;100327.06;5044747;28;20049;-82
2020/12/31 02:18:56;;;;;;;10.50;7.37;;;;;;;2.72;93.31;100333.59;5063519;28;20017;-80
2020/12/31 02:21:29;;;;;;;10.30;6.67;;;;;;;2.67;93.59;100323.25;5047381;28;20479;-79
2020/12/31 02:23:57;;;;;;;10.13;7.23;;;;;;;2.63;93.09;100315.44;5047101;28;20029;-80
2020/12/31 02:26:26;;;;;;;11.27;8.27;;;;;;;2.69;92.95;100313.19;5049159;28;20049;-79
2020/12/31 02:28:52;;;;;;;11.97;8.23;;;;;;;2.72;93.12;100305.69;5049267;28;20021;-82
2020/12/31 02:31:18;;;;;;;10.93;7.70;;;;;;;2.61;93.55;100314.50;5060368;28;20033;-80
2020/12/31 02:33:51;;;;;;;11.68;7.55;;;;;;;2.61;93.47;100312.81;5042258;28;20052;-78
2020/12/31 02:36:18;;;;;;;8.60;5.77;;;;;;;2.56;93.38;100311.72;5046206;28;20039;-79
2020/12/31 02:38:45;;;;;;;7.93;5.33;;;;;;;2.55;93.20;100316.72;5049494;28;20032;-83
2020/12/31 02:41:11;;;;;;;8.17;4.63;;;;;;;2.50;93.56;100309.75;5046420;28;20511;-78
2020/12/31 02:43:37;;;;;;;;;;;;;;;2.42;93.59;100313.63;5049719;28;20036;-79
2020/12/31 02:46:06;;;;;;;6.70;4.30;;;;;;;2.46;93.70;100310.41;5051431;28;19916;-79
2020/12/31 02:48:32;;;;;;;6.13;4.03;;;;;;;2.44;93.55;100309.47;5049772;28;20021;-80
2020/12/31 02:50:58;;;;;;;6.22;3.67;;;;;;;2.44;93.47;100299.34;5046857;28;20072;-79
2020/12/31 02:53:23;;;;;;;6.33;3.60;;;;;;;2.39;93.49;100307.53;5047483;28;20063;-79
2020/12/31 02:55:48;;;;;;;4.97;2.80;;;;;;;2.42;93.44;100298.41;5049515;28;20052;-79
2020/12/31 02:58:14;;;;;;;4.03;2.53;;;;;;;2.39;93.64;100305.00;5047653;28;20084;-79
2020/12/31 03:00:39;;;;;;;3.88;2.17;;;;;;;2.34;93.21;100299.72;5066883;28;20047;-79
2020/12/31 03:03:04;;;;;;;2.70;1.58;;;;;;;2.28;93.41;100304.50;5051723;28;20351;-79
2020/12/31 03:05:30;;;;;;;3.50;1.48;;;;;;;2.23;93.58;100298.31;5046881;28;20025;-79
2020/12/31 03:07:55;;;;;;;4.35;1.85;;;;;;;2.24;93.66;100296.66;5050406;28;20025;-79
2020/12/31 03:10:21;;;;;;;3.42;1.85;;;;;;;2.27;93.95;100297.66;5044107;28;20028;-79
2020/12/31 03:12:46;;;;;;;4.85;1.40;;;;;;;2.29;93.71;100291.03;5048800;28;20048;-78
2020/12/31 03:15:14;;;;;;;4.83;2.23;;;;;;;2.36;93.63;100293.06;5043705;28;20026;-79
2020/12/31 03:17:39;;;;;;;2.80;1.80;;;;;;;2.32;93.66;100291.16;5042179;28;20431;-79
2020/12/31 03:20:05;;;;;;;4.07;1.98;;;;;;;2.27;93.99;100289.19;5044841;28;20061;-80
2020/12/31 03:22:30;;;;;;;5.40;2.17;;;;;;;2.29;94.00;100287.63;5043796;28;20021;-78
2020/12/31 03:24:55;;;;;;;4.10;2.47;;;;;;;2.28;93.89;100291.81;5052055;28;20060;-79
2020/12/31 03:27:21;;;;;;;4.10;2.38;;;;;;;2.24;94.00;100289.91;5047068;28;20286;-78
2020/12/31 03:29:46;;;;;;;11.52;2.90;;;;;;;2.22;94.27;100291.50;5043947;28;20067;-78
2020/12/31 03:32:11;;;;;;;4.23;2.20;;;;;;;2.26;94.02;100288.31;5045279;28;20462;-80
2020/12/31 03:34:37;;;;;;;7.25;2.25;;;;;;;2.21;94.27;100282.16;5045066;28;20185;-80
2020/12/31 03:37:02;;;;;;;5.60;2.60;;;;;;;2.19;94.65;100282.09;5050082;28;20436;-79
2020/12/31 03:39:27;;;;;;;4.53;2.42;;;;;;;2.17;94.29;100273.56;5044562;28;20025;-78
2020/12/31 03:41:53;;;;;;;8.27;2.80;;;;;;;2.11;94.61;100278.34;5047921;28;20027;-79
2020/12/31 03:44:18;;;;;;;5.90;2.87;;;;;;;2.10;94.69;100276.59;5050387;28;20703;-78
2020/12/31 03:46:43;;;;;;;5.80;3.20;;;;;;;2.05;94.51;100274.63;5047870;28;20025;-79
2020/12/31 03:49:08;;;;;;;6.57;3.47;;;;;;;2.09;94.55;100279.06;5049945;28;20029;-79
2020/12/31 03:51:34;;;;;;;11.17;4.53;;;;;;;2.10;94.52;100271.53;5050121;28;20815;-78
2020/12/31 03:53:59;;;;;;;8.87;5.70;;;;;;;2.18;94.86;100275.28;5066392;28;20875;-78
2020/12/31 03:56:24;;;;;;;11.83;6.33;;;;;;;2.21;94.69;100259.34;5049988;28;20029;-79
2020/12/31 03:58:49;;;;;;;11.87;7.53;;;;;;;2.19;94.85;100264.34;5045138;28;20634;-79
2020/12/31 04:01:15;;;;;;;11.17;8.53;;;;;;;2.22;95.05;100256.03;5051753;28;20101;-78
2020/12/31 04:03:40;;;;;;;16.52;10.73;;;;;;;2.30;94.75;100252.22;5046196;28;20482;-78
2020/12/31 04:06:05;;;;;;;16.33;10.73;;;;;;;2.34;95.03;100250.69;5048888;28;20029;-79
2020/12/31 04:08:30;;;;;;;18.37;12.60;;;;;;;2.29;94.78;100253.00;5051928;28;20488;-78
2020/12/31 04:10:56;;;;;;;23.93;14.53;;;;;;;2.29;94.91;100247.94;5051583;28;20276;-77
2020/12/31 04:13:21;;;;;;;23.53;13.87;;;;;;;2.29;94.85;100237.81;5050127;28;20056;-79
2020/12/31 04:15:46;;;;;;;23.80;15.43;;;;;;;2.28;95.27;100242.81;5053629;28;20275;-79
2020/12/31 04:18:11;;;;;;;24.15;15.88;;;;;;;2.35;95.12;100243.16;5044909;28;20113;-79
2020/12/31 04:20:37;;;;;;;24.57;16.10;;;;;;;2.29;95.23;100236.94;5051251;28;20021;-81
2020/12/31 04:23:02;;;;;;;25.90;16.83;;;;;;;2.28;95.25;100233.53;5047712;28;20734;-79
2020/12/31 04:25:27;;;;;;;26.17;18.30;;;;;;;2.31;95.57;100237.88;5049717;28;20696;-79
2020/12/31 04:27:52;;;;;;;28.10;18.90;;;;;;;2.29;95.22;100235.28;5046907;28;20029;-79
2020/12/31 04:30:18;;;;;;;26.30;17.38;;;;;;;2.25;95.45;100235.91;5048788;28;20112;-79
2020/12/31 04:32:43;;;;;;;29.97;17.97;;;;;;;2.21;95.41;100235.69;5047900;28;20031;-81
2020/12/31 04:35:08;;;;;;;25.33;16.97;;;;;;;2.17;95.72;100235.53;5048525;28;20279;-77
2020/12/31 04:37:33;;;;;;;27.73;18.77;;;;;;;2.18;95.77;100232.22;5046394;28;20180;-79
2020/12/31 04:39:59;;;;;;;26.03;17.33;;;;;;;2.19;95.94;100230.56;5047927;28;20029;-79
2020/12/31 04:42:33;;;;;;;26.87;18.83;;;;;;;2.21;95.68;100231.50;5046027;28;20945;-78
2020/12/31 04:45:00;;;;;;;32.67;17.80;;;;;;;2.19;95.96;100225.47;5047746;28;20475;-79
2020/12/31 04:47:25;;;;;;;;;;;;;;;2.18;95.82;100222.09;5050473;28;20056;-79
2020/12/31 04:49:52;;;;;;;30.30;18.37;;;;;;;2.27;95.79;100225.84;5048077;28;19919;-78
2020/12/31 04:52:18;;;;;;;30.50;18.17;;;;;;;2.25;96.01;100219.81;5052057;28;20025;-79
2020/12/31 04:54:43;;;;;;;28.40;18.25;;;;;;;2.17;95.84;100222.00;5046377;28;20056;-79
2020/12/31 04:57:09;;;;;;;27.33;17.98;;;;;;;2.11;95.84;100214.13;5050633;28;20083;-78
2020/12/31 04:59:35;;;;;;;23.33;16.65;;;;;;;2.07;95.73;100215.66;5045319;28;20056;-82
2020/12/31 05:02:01;;;;;;;22.33;16.20;;;;;;;2.02;95.87;100212.03;5054567;28;20036;-79
2020/12/31 05:04:26;;;;;;;25.45;16.02;;;;;;;2.00;95.95;100210.22;5048563;28;20089;-79
2020/12/31 05:06:53;;;;;;;27.58;17.45;;;;;;;2.00;95.96;100223.75;5045870;28;20025;-78
2020/12/31 05:09:20;;;;;;;26.87;16.93;;;;;;;1.98;95.83;100211.81;5043966;28;20025;-77
2020/12/31 05:11:47;;;;;;;28.97;17.17;;;;;;;1.99;95.61;100216.09;5047483;28;20021;-78
2020/12/31 05:14:25;;;;;;;25.60;17.50;;;;;;;1.96;95.70;100215.94;5048288;28;20021;-79
2020/12/31 05:16:50;;;;;;;29.50;18.37;;;;;;;1.97;96.06;100217.69;5046054;28;20025;-78
2020/12/31 05:19:23;;;;;;;27.87;17.80;;;;;;;1.96;96.08;100224.41;5046507;28;20017;-79
2020/12/31 05:21:48;;;;;;;27.23;17.60;;;;;;;1.92;95.88;100224.16;5048053;28;20824;-77
2020/12/31 05:24:14;;;;;;;26.67;18.00;;;;;;;1.93;95.89;100215.78;5047613;28;20025;-76
2020/12/31 05:26:40;;;;;;;30.70;19.63;;;;;;;1.93;96.03;100225.91;5044390;28;20496;-77
2020/12/31 05:29:05;;;;;;;30.17;19.02;;;;;;;1.98;96.13;100222.81;5048801;28;20032;-81
2020/12/31 05:31:51;;;;;;;29.73;18.85;;;;;;;2.14;95.67;100221.88;5043325;28;20040;-77
2020/12/31 05:34:31;;;;;;;31.93;19.27;;;;;;;1.99;95.78;100213.56;5046607;28;20394;-78
2020/12/31 05:37:14;;;;;;;29.27;17.70;;;;;;;1.90;95.47;100220.69;5047106;28;20087;-79
2020/12/31 05:39:58;;;;;;;27.63;17.83;;;;;;;1.81;95.51;100221.13;5045984;28;20041;-79
2020/12/31 05:42:24;;;;;;;26.43;17.10;;;;;;;1.74;95.91;100219.97;5049651;28;20036;-78
2020/12/31 05:45:13;;;;;;;29.48;17.77;;;;;;;1.72;95.87;100224.09;5043786;28;20074;-79
2020/12/31 05:47:45;;;;;;;28.00;15.87;;;;;;;1.74;96.07;100229.22;5049119;28;20030;-78
2020/12/31 05:50:15;;;;;;;23.33;16.00;;;;;;;1.63;96.07;100218.59;5048518;28;20036;-79
2020/12/31 05:52:40;;;;;;;23.57;15.23;;;;;;;1.58;95.83;100220.00;5042935;28;20032;-79
2020/12/31 05:55:08;;;;;;;26.48;16.70;;;;;;;1.56;95.82;100219.06;5047386;28;20025;-79
2020/12/31 05:57:54;;;;;;;23.77;15.63;;;;;;;1.57;95.86;100225.84;5047035;28;20112;-77
2020/12/31 06:00:28;;;;;;;23.27;15.48;;;;;;;1.61;96.15;100221.81;5049300;28;20044;-80
2020/12/31 06:02:58;;;;;;;25.10;15.77;;;;;;;1.64;96.17;100227.91;5043961;28;20033;-78
2020/12/31 06:05:24;;;;;;;38.40;21.17;;;;;;;1.90;96.95;100228.28;5042180;28;20035;-78
2020/12/31 06:07:52;;;;;;;41.83;22.17;;;;;;;1.93;96.70;100228.44;5044357;28;20482;-78
2020/12/31 06:10:21;;;;;;;36.77;21.60;;;;;;;2.03;96.22;100228.09;5042659;28;20059;-77
2020/12/31 06:12:52;;;;;;;30.97;19.70;;;;;;;1.94;96.36;100235.25;5045023;28;20020;-79
2020/12/31 06:15:38;;;;;;;30.80;19.37;;;;;;;1.87;96.07;100237.47;5050172;28;20025;-79
2020/12/31 06:18:05;;;;;;;28.80;19.67;;;;;;;1.81;96.22;100242.25;5045039;28;20033;-78
2020/12/31 06:20:32;;;;;;;30.20;19.10;;;;;;;1.78;96.21;100247.16;5047567;28;20030;-79
2020/12/31 06:23:11;;;;;;;30.50;18.00;;;;;;;1.75;96.65;100241.97;5049170;28;20398;-79
2020/12/31 06:25:44;;;;;;;34.33;20.63;;;;;;;1.71;96.42;100235.00;5044032;28;20025;-79
2020/12/31 06:28:20;;;;;;;27.97;18.20;;;;;;;1.70;96.56;100243.41;5046475;28;20479;-78
2020/12/31 06:30:54;;;;;;;28.40;18.08;;;;;;;1.67;96.49;100238.19;5045736;28;20048;-78
2020/12/31 06:33:27;;;;;;;27.67;18.13;;;;;;;1.64;96.51;100235.50;5039677;28;20021;-81
2020/12/31 06:35:57;;;;;;;33.33;19.37;;;;;;;1.61;96.51;100244.59;5042083;28;20025;-79
2020/12/31 06:38:38;;;;;;;30.40;17.83;;;;;;;1.61;96.40;100245.47;5038669;28;20583;-79
2020/12/31 06:41:25;;;;;;;34.50;20.30;;;;;;;1.62;96.74;100246.34;5047302;28;20028;-78
2020/12/31 06:44:05;;;;;;;45.53;23.50;;;;;;;1.74;97.42;100242.75;5043647;28;20029;-78
2020/12/31 06:46:38;;;;;;;42.73;22.87;;;;;;;1.70;97.02;100240.88;5043771;28;20112;-78
2020/12/31 06:49:03;;;;;;;37.37;20.30;;;;;;;1.67;97.09;100247.44;5044217;28;20031;-79
2020/12/31 06:51:28;;;;;;;35.95;19.55;;;;;;;1.66;96.89;100251.66;5045748;28;20017;-78
2020/12/31 06:53:54;;;;;;;37.38;20.33;;;;;;;1.77;96.78;100245.44;5042468;28;20025;-79
2020/12/31 06:56:46;;;;;;;46.78;24.58;;;;;;;1.85;96.93;100244.13;5038771;28;20048;-78
2020/12/31 06:59:40;;;;;;;43.30;24.33;;;;;;;1.87;96.62;100246.75;5037647;28;20033;-79
2020/12/31 07:02:11;;;;;;;44.47;23.40;;;;;;;1.87;96.61;100247.63;5038944;28;20025;-78
2020/12/31 07:04:41;;;;;;;40.13;22.67;;;;;;;1.94;96.46;100250.44;5048983;28;20524;-79
2020/12/31 07:07:18;;;;;;;50.30;22.87;;;;;;;1.88;96.43;100254.41;5038816;28;20059;-79
2020/12/31 07:09:50;;;;;;;50.10;25.27;;;;;;;1.97;96.47;100260.75;5042189;28;20108;-77
2020/12/31 07:12:30;;;;;;;46.83;24.37;;;;;;;1.88;96.13;100258.59;5040133;28;20124;-78
2020/12/31 07:14:58;;;;;;;43.40;23.53;;;;;;;1.80;96.45;100260.78;5044045;28;20034;-79
2020/12/31 07:17:23;;;;;;;40.30;22.27;;;;;;;1.76;96.25;100261.44;5045806;28;20102;-79
2020/12/31 07:19:48;;;;;;;50.83;24.03;;;;;;;1.73;96.38;100253.69;5044543;28;20021;-76
2020/12/31 07:22:18;;;;;;;41.42;21.52;;;;;;;1.69;96.44;100259.41;5045079;28;20371;-78
2020/12/31 07:24:56;;;;;;;38.37;21.93;;;;;;;1.65;96.46;100262.56;5039864;28;20021;-77
2020/12/31 07:27:27;;;;;;;44.83;22.03;;;;;;;1.67;96.50;100257.56;5040666;28;20031;-77
2020/12/31 07:30:08;;;;;;;45.60;23.07;;;;;;;1.68;96.81;100260.19;5040306;28;20029;-77
2020/12/31 07:32:50;;;;;;;50.43;24.70;;;;;;;1.73;96.53;100268.00;5047732;28;20020;-78
2020/12/31 07:35:35;;;;;;;46.10;23.60;;;;;;;1.73;96.81;100271.41;5053891;28;20036;-76
2020/12/31 07:38:05;;;;;;;50.67;24.73;;;;;;;1.81;97.06;100267.56;5049146;28;20021;-77
2020/12/31 07:40:30;;;;;;;55.70;27.87;;;;;;;1.83;97.08;100273.59;5058117;28;20017;-78
2020/12/31 07:42:56;;;;;;;57.73;26.67;;;;;;;1.86;97.18;100271.19;5052353;28;20036;-78
2020/12/31 07:45:22;;;;;;;52.72;26.63;;;;;;;1.88;97.38;100277.22;5062772;28;20297;-77
2020/12/31 07:47:51;;;;;;;57.58;28.70;;;;;;;1.90;97.15;100278.94;5059860;28;20024;-77
2020/12/31 07:50:17;;;;;;;49.80;26.90;;;;;;;1.92;97.20;100282.41;5057834;28;20036;-77
2020/12/31 07:52:43;;;;;;;48.28;25.35;;;;;;;1.94;97.33;100288.44;5054428;28;20036;-78
2020/12/31 07:55:08;;;;;;;47.50;24.63;;;;;;;1.93;97.34;100299.34;5051828;28;20026;-77
2020/12/31 07:57:39;;;;;;;44.80;24.67;;;;;;;1.91;97.24;100298.41;5046533;28;20033;-78
2020/12/31 08:00:06;;;;;;;40.33;22.07;;;;;;;1.89;97.33;100298.34;5049918;28;20288;-78
2020/12/31 08:02:32;;;;;;;40.63;20.93;;;;;;;1.97;97.07;100296.22;5054110;28;20067;-77
2020/12/31 08:04:57;;;;;;;37.85;20.67;;;;;;;2.01;97.07;100295.56;5039101;28;20037;-77
2020/12/31 08:07:23;;;;;;;34.53;20.33;;;;;;;2.01;96.59;100300.63;5036037;28;20104;-78
2020/12/31 08:09:49;;;;;;;35.67;18.87;;;;;;;2.14;96.26;100297.88;5036311;28;20029;-76
2020/12/31 08:12:15;;;;;;;32.70;17.03;;;;;;;2.05;95.91;100287.31;5034712;28;20299;-78
2020/12/31 08:14:43;;;;;;;35.13;19.10;;;;;;;1.87;95.89;100293.19;5039179;28;20048;-77
2020/12/31 08:17:09;;;;;;;47.93;24.73;;;;;;;1.75;96.74;100291.72;5037687;28;20025;-77
2020/12/31 08:19:35;;;;;;;39.28;20.58;;;;;;;1.73;96.36;100296.72;5037134;28;20026;-78
2020/12/31 08:22:10;;;;;;;35.97;20.50;;;;;;;1.73;96.62;100299.25;5037504;28;20091;-77
2020/12/31 08:24:44;;;;;;;37.87;21.30;;;;;;;1.79;96.35;100301.22;5040512;28;20090;-77
2020/12/31 08:27:10;;;;;;;32.90;17.77;;;;;;;1.77;96.55;100306.22;5056433;28;20086;-77
2020/12/31 08:29:37;;;;;;;31.07;18.93;;;;;;;1.78;96.68;100302.88;5057594;28;20398;-78
2020/12/31 08:32:08;;;;;;;32.23;18.47;;;;;;;1.79;96.56;100304.63;5058181;28;20390;-78
2020/12/31 08:34:37;;;;;;;38.07;19.67;;;;;;;1.80;96.49;100303.81;5046479;28;20055;-77
2020/12/31 08:37:04;;;;;;;33.23;18.63;;;;;;;1.87;96.23;100300.78;5037604;28;20109;-77
2020/12/31 08:39:29;;;;;;;36.43;19.60;;;;;;;1.92;96.46;100293.41;5046251;28;20017;-78
2020/12/31 08:42:00;;;;;;;46.65;25.00;;;;;;;2.00;96.75;100294.69;5057619;28;20036;-77
2020/12/31 08:44:28;;;;;;;51.60;25.80;;;;;;;2.08;96.71;100293.38;5037054;28;20036;-78
2020/12/31 08:46:54;;;;;;;46.53;26.93;;;;;;;2.07;96.75;100299.25;5036746;28;20410;-77
2020/12/31 08:49:26;;;;;;;48.40;24.98;;;;;;;2.10;96.70;100296.00;5038942;28;20036;-77
2020/12/31 08:51:52;;;;;;;50.80;25.70;;;;;;;2.11;96.62;100296.06;5037976;28;20495;-77
2020/12/31 08:54:19;;;;;;;49.25;27.13;;;;;;;2.31;96.74;100297.03;5039309;28;20029;-77
2020/12/31 08:56:44;;;;;;;46.40;24.80;;;;;;;2.50;96.14;100296.22;5054893;28;20021;-77
2020/12/31 08:59:10;;;;;;;49.25;24.40;;;;;;;2.46;95.66;100296.88;5054647;28;20017;-77
2020/12/31 09:01:35;;;;;;;48.45;25.35;;;;;;;2.39;95.61;100305.88;5052704;28;20039;-77
2020/12/31 09:04:18;;;;;;;44.40;24.80;;;;;;;2.31;95.93;100308.84;5052647;28;20082;-78
2020/12/31 09:06:45;;;;;;;44.23;24.27;;;;;;;2.23;95.92;100298.31;5055081;28;20039;-77
2020/12/31 09:09:28;;;;;;;44.53;25.03;;;;;;;2.16;95.97;100302.22;5054491;28;20465;-77
2020/12/31 09:12:08;;;;;;;46.87;25.90;;;;;;;2.19;96.40;100306.56;5033062;28;20626;-77
2020/12/31 09:14:38;;;;;;;49.07;25.97;;;;;;;2.18;96.25;100309.91;5035949;28;20045;-78
2020/12/31 09:17:25;;;;;;;48.37;26.20;;;;;;;2.22;96.51;100316.84;5035484;28;20030;-78
2020/12/31 09:19:51;;;;;;;;;;;;;;;2.26;96.55;100318.72;5047944;28;20021;-77
2020/12/31 09:22:16;;;;;;;50.43;24.70;;;;;;;2.30;96.71;100320.66;5050898;28;19962;-78
2020/12/31 09:24:42;;;;;;;47.20;25.23;;;;;;;2.34;96.78;100322.53;5052041;28;20036;-79
2020/12/31 09:27:07;;;;;;;49.33;25.67;;;;;;;2.40;96.84;100322.81;5045232;28;20106;-78
2020/12/31 09:29:34;;;;;;;52.20;26.48;;;;;;;2.54;96.98;100332.72;5046440;28;20055;-78
2020/12/31 09:31:59;;;;;;;45.67;25.77;;;;;;;2.67;96.97;100320.72;5046289;28;20084;-78
2020/12/31 09:34:24;;;;;;;48.03;26.20;;;;;;;2.76;96.76;100322.78;5047157;28;20076;-79
2020/12/31 09:36:50;;;;;;;42.83;24.57;;;;;;;2.91;95.84;100326.03;5043584;28;20268;-78
2020/12/31 09:39:15;;;;;;;43.17;26.00;;;;;;;2.99;95.89;100327.28;5050342;28;20387;-78
2020/12/31 09:41:40;;;;;;;54.77;26.63;;;;;;;3.03;95.38;100328.28;5048009;28;20394;-78
2020/12/31 09:44:06;;;;;;;48.37;25.03;;;;;;;3.07;94.86;100318.31;5045466;28;20028;-79
2020/12/31 09:46:31;;;;;;;48.75;24.60;;;;;;;3.08;94.51;100332.75;5045831;28;20378;-78
2020/12/31 09:48:57;;;;;;;49.47;26.13;;;;;;;3.07;93.97;100330.16;5042818;28;20036;-78
2020/12/31 09:51:22;;;;;;;53.92;27.95;;;;;;;3.14;94.12;100324.53;5049299;28;20092;-78
2020/12/31 09:53:50;;;;;;;52.90;27.50;;;;;;;3.17;94.69;100329.75;5041596;28;20079;-78
2020/12/31 09:56:15;;;;;;;45.73;25.43;;;;;;;3.22;93.35;100332.47;5044896;28;20032;-78
2020/12/31 09:58:41;;;;;;;57.50;27.23;;;;;;;3.18;93.17;100323.00;5048443;28;20119;-78
2020/12/31 10:01:07;;;;;;;50.63;27.50;;;;;;;3.21;93.61;100331.63;5043287;28;20036;-78
2020/12/31 10:03:33;;;;;;;52.97;26.92;;;;;;;3.19;93.94;100337.44;5051060;28;20031;-77
2020/12/31 10:05:58;;;;;;;45.95;24.70;;;;;;;3.28;93.72;100337.88;5043468;28;20391;-78
2020/12/31 10:08:23;;;;;;;47.92;23.58;;;;;;;3.29;93.17;100337.06;5043720;28;20083;-78
2020/12/31 10:10:49;;;;;;;45.13;25.58;;;;;;;3.28;92.71;100336.19;5051580;28;20025;-77
2020/12/31 10:13:14;;;;;;;44.05;24.70;;;;;;;3.20;93.36;100341.69;5045219;28;20027;-78
2020/12/31 10:15:39;;;;;;;47.50;27.42;;;;;;;3.21;93.70;100339.22;5041401;28;20044;-78
2020/12/31 10:18:05;;;;;;;46.92;27.88;;;;;;;3.18;93.93;100333.16;5042761;28;20021;-77
2020/12/31 10:20:32;;;;;;;46.75;26.33;;;;;;;3.17;94.14;100337.34;5047792;28;20021;-78
2020/12/31 10:22:57;;;;;;;;;;;;;;;3.19;94.56;100339.97;5042580;28;20040;-78
2020/12/31 10:25:22;;;;;;;46.27;23.67;;;;;;;3.18;94.50;100338.22;5045946;28;19921;-78
2020/12/31 10:27:47;;;;;;;42.75;23.10;;;;;;;3.31;93.46;100338.00;5042678;28;20033;-78
2020/12/31 10:30:13;;;;;;;40.77;23.37;;;;;;;3.25;93.83;100330.97;5046814;28;20025;-77
2020/12/31 10:32:38;;;;;;;36.27;22.10;;;;;;;3.29;94.06;100337.94;5045643;28;20276;-77
2020/12/31 10:35:04;;;;;;;44.58;24.83;;;;;;;3.25;93.91;100342.78;5047553;28;20274;-77
2020/12/31 10:37:30;;;;;;;;;;;;;;;3.24;93.96;100339.38;5038296;28;20387;-78
2020/12/31 10:39:55;;;;;;;40.00;23.10;;;;;;;3.28;93.92;100337.88;5042205;28;19912;-78
2020/12/31 10:42:20;;;;;;;50.00;25.83;;;;;;;3.25;93.81;100337.69;5048371;28;20096;-78
2020/12/31 10:44:45;;;;;;;42.93;24.00;;;;;;;3.28;93.79;100335.31;5042049;28;20351;-78
2020/12/31 10:47:11;;;;;;;44.83;23.83;;;;;;;3.30;93.80;100333.72;5046269;28;20509;-78
2020/12/31 10:49:36;;;;;;;46.40;24.93;;;;;;;3.30;93.94;100333.72;5053223;28;20061;-77
2020/12/31 10:52:01;;;;;;;47.00;25.80;;;;;;;3.32;94.41;100327.03;5053786;28;20283;-78
2020/12/31 10:54:27;;;;;;;43.95;23.85;;;;;;;3.36;93.81;100331.44;5054441;28;20021;-78
2020/12/31 10:56:55;;;;;;;41.15;23.98;;;;;;;3.52;93.14;100330.44;5041964;28;20033;-78
2020/12/31 10:59:20;;;;;;;46.33;26.60;;;;;;;3.64;93.38;100328.44;5034699;28;20018;-76
2020/12/31 11:01:50;;;;;;;46.47;24.67;;;;;;;3.72;93.41;100334.72;5034470;28;20033;-77
2020/12/31 11:04:15;;;;;;;46.77;26.07;;;;;;;3.83;93.14;100330.06;5034973;28;20025;-78
2020/12/31 11:06:41;;;;;;;53.03;25.93;;;;;;;3.89;93.06;100330.31;5047012;28;20040;-78
2020/12/31 11:09:07;;;;;;;49.03;27.00;;;;;;;3.95;92.93;100328.06;5039982;28;20051;-78
2020/12/31 11:11:33;;;;;;;43.25;25.25;;;;;;;4.03;92.68;100326.69;5039832;28;20061;-78
2020/12/31 11:13:59;;;;;;;40.50;24.53;;;;;;;4.20;91.88;100335.88;5035646;28;20025;-78
2020/12/31 11:16:24;;;;;;;40.78;23.52;;;;;;;4.14;90.32;100330.53;5037051;28;20025;-78
2020/12/31 11:18:49;;;;;;;41.65;23.90;;;;;;;4.22;89.46;100328.31;5037216;28;20135;-77
2020/12/31 11:21:19;;;;;;;39.13;23.30;;;;;;;4.21;89.83;100334.19;5036791;28;20113;-78
2020/12/31 11:23:45;;;;;;;41.60;24.90;;;;;;;4.28;90.46;100323.50;5045330;28;20487;-78